sensor_id;sensor_type;location;lat;lon;timestamp;P1;durP1;ratioP1;P2;durP2;ratioP2
67816;SDS011;54614;47.576;7.524;2023-04-25T00:01:46;5.72;;;2.10;;
67816;SDS011;54614;47.576;7.524;2023-04-25T00:04:12;5.15;;;1.70;;
67816;SDS011;54614;47.576;7.524;2023-04-25T00:06:38;4.82;;;1.70;;
67816;SDS011;54614;47.576;7.524;2023-04-25T00:09:04;3.08;;;1.60;;
67816;SDS011;54614;47.576;7.524;2023-04-25T00:11:35;6.90;;;1.90;;
67816;SDS011;54614;47.576;7.524;2023-04-25T00:14:03;4.53;;;1.80;;
67816;SDS011;54614;47.576;7.524;2023-04-25T00:16:29;7.38;;;1.90;;
67816;SDS011;54614;47.576;7.524;2023-04-25T00:18:58;8.05;;;1.85;;
67816;SDS011;54614;47.576;7.524;2023-04-25T00:21:25;4.60;;;1.42;;
67816;SDS011;54614;47.576;7.524;2023-04-25T00:23:52;3.88;;;1.50;;
67816;SDS011;54614;47.576;7.524;2023-04-25T00:26:18;5.25;;;1.70;;
67816;SDS011;54614;47.576;7.524;2023-04-25T00:28:45;3.75;;;1.67;;
67816;SDS011;54614;47.576;7.524;2023-04-25T00:31:13;4.82;;;1.83;;
67816;SDS011;54614;47.576;7.524;2023-04-25T00:33:39;6.80;;;1.77;;
67816;SDS011;54614;47.576;7.524;2023-04-25T00:36:05;3.75;;;1.60;;
67816;SDS011;54614;47.576;7.524;2023-04-25T00:38:31;1.80;;;1.55;;
67816;SDS011;54614;47.576;7.524;2023-04-25T00:40:57;2.58;;;1.58;;
67816;SDS011;54614;47.576;7.524;2023-04-25T00:43:25;3.78;;;1.60;;
67816;SDS011;54614;47.576;7.524;2023-04-25T00:45:53;2.30;;;1.48;;
67816;SDS011;54614;47.576;7.524;2023-04-25T00:48:21;5.90;;;1.80;;
67816;SDS011;54614;47.576;7.524;2023-04-25T00:50:57;4.47;;;1.80;;
67816;SDS011;54614;47.576;7.524;2023-04-25T00:53:25;5.32;;;1.67;;
67816;SDS011;54614;47.576;7.524;2023-04-25T00:55:53;2.47;;;1.60;;
67816;SDS011;54614;47.576;7.524;2023-04-25T00:58:20;2.88;;;1.77;;
67816;SDS011;54614;47.576;7.524;2023-04-25T01:00:47;4.03;;;1.60;;
67816;SDS011;54614;47.576;7.524;2023-04-25T01:03:15;4.10;;;1.70;;
67816;SDS011;54614;47.576;7.524;2023-04-25T01:05:44;2.97;;;1.40;;
67816;SDS011;54614;47.576;7.524;2023-04-25T01:08:12;2.53;;;1.45;;
67816;SDS011;54614;47.576;7.524;2023-04-25T01:10:39;3.35;;;1.70;;
67816;SDS011;54614;47.576;7.524;2023-04-25T01:13:05;3.13;;;1.70;;
67816;SDS011;54614;47.576;7.524;2023-04-25T01:15:32;2.85;;;1.52;;
67816;SDS011;54614;47.576;7.524;2023-04-25T01:18:00;2.97;;;1.75;;
67816;SDS011;54614;47.576;7.524;2023-04-25T01:20:26;3.17;;;1.42;;
67816;SDS011;54614;47.576;7.524;2023-04-25T01:22:54;4.10;;;1.58;;
67816;SDS011;54614;47.576;7.524;2023-04-25T01:25:21;2.45;;;1.60;;
67816;SDS011;54614;47.576;7.524;2023-04-25T01:27:49;3.00;;;1.52;;
67816;SDS011;54614;47.576;7.524;2023-04-25T01:30:15;3.13;;;1.40;;
67816;SDS011;54614;47.576;7.524;2023-04-25T01:32:42;2.60;;;1.40;;
67816;SDS011;54614;47.576;7.524;2023-04-25T01:35:10;4.20;;;1.92;;
67816;SDS011;54614;47.576;7.524;2023-04-25T01:37:40;4.28;;;1.60;;
67816;SDS011;54614;47.576;7.524;2023-04-25T01:40:10;3.45;;;1.50;;
67816;SDS011;54614;47.576;7.524;2023-04-25T01:42:39;3.05;;;1.58;;
67816;SDS011;54614;47.576;7.524;2023-04-25T01:45:08;3.38;;;1.48;;
67816;SDS011;54614;47.576;7.524;2023-04-25T01:47:36;3.15;;;1.80;;
67816;SDS011;54614;47.576;7.524;2023-04-25T01:50:05;1.90;;;1.63;;
67816;SDS011;54614;47.576;7.524;2023-04-25T01:52:32;4.07;;;1.58;;
67816;SDS011;54614;47.576;7.524;2023-04-25T01:54:59;4.50;;;1.77;;
67816;SDS011;54614;47.576;7.524;2023-04-25T01:57:27;2.10;;;1.40;;
67816;SDS011;54614;47.576;7.524;2023-04-25T01:59:55;3.75;;;1.50;;
67816;SDS011;54614;47.576;7.524;2023-04-25T02:02:26;2.22;;;1.50;;
67816;SDS011;54614;47.576;7.524;2023-04-25T02:04:52;3.55;;;1.60;;
67816;SDS011;54614;47.576;7.524;2023-04-25T02:07:19;2.78;;;1.50;;
67816;SDS011;54614;47.576;7.524;2023-04-25T02:09:45;3.50;;;1.25;;
67816;SDS011;54614;47.576;7.524;2023-04-25T02:12:11;1.40;;;1.30;;
67816;SDS011;54614;47.576;7.524;2023-04-25T02:14:37;2.03;;;1.50;;
67816;SDS011;54614;47.576;7.524;2023-04-25T02:17:03;4.18;;;1.45;;
67816;SDS011;54614;47.576;7.524;2023-04-25T02:19:29;2.47;;;1.60;;
67816;SDS011;54614;47.576;7.524;2023-04-25T02:21:55;2.13;;;1.70;;
67816;SDS011;54614;47.576;7.524;2023-04-25T02:24:22;3.15;;;1.58;;
67816;SDS011;54614;47.576;7.524;2023-04-25T02:26:48;1.52;;;1.42;;
67816;SDS011;54614;47.576;7.524;2023-04-25T02:29:14;1.58;;;1.48;;
67816;SDS011;54614;47.576;7.524;2023-04-25T02:31:41;2.13;;;1.73;;
67816;SDS011;54614;47.576;7.524;2023-04-25T02:34:07;1.83;;;1.45;;
67816;SDS011;54614;47.576;7.524;2023-04-25T02:36:33;1.45;;;1.35;;
67816;SDS011;54614;47.576;7.524;2023-04-25T02:39:00;2.63;;;1.30;;
67816;SDS011;54614;47.576;7.524;2023-04-25T02:41:27;3.05;;;1.58;;
67816;SDS011;54614;47.576;7.524;2023-04-25T02:43:54;1.50;;;1.40;;
67816;SDS011;54614;47.576;7.524;2023-04-25T02:46:20;1.65;;;1.48;;
67816;SDS011;54614;47.576;7.524;2023-04-25T02:48:46;2.90;;;1.55;;
67816;SDS011;54614;47.576;7.524;2023-04-25T02:51:11;2.17;;;1.33;;
67816;SDS011;54614;47.576;7.524;2023-04-25T02:53:37;2.90;;;1.33;;
67816;SDS011;54614;47.576;7.524;2023-04-25T02:56:03;4.68;;;1.50;;
67816;SDS011;54614;47.576;7.524;2023-04-25T02:58:30;6.13;;;1.70;;
67816;SDS011;54614;47.576;7.524;2023-04-25T03:00:56;1.50;;;1.40;;
67816;SDS011;54614;47.576;7.524;2023-04-25T03:03:21;1.83;;;1.50;;
67816;SDS011;54614;47.576;7.524;2023-04-25T03:05:48;3.35;;;1.40;;
67816;SDS011;54614;47.576;7.524;2023-04-25T03:08:15;1.20;;;1.20;;
67816;SDS011;54614;47.576;7.524;2023-04-25T03:10:43;4.13;;;1.40;;
67816;SDS011;54614;47.576;7.524;2023-04-25T03:13:10;2.58;;;1.40;;
67816;SDS011;54614;47.576;7.524;2023-04-25T03:15:36;2.05;;;1.50;;
67816;SDS011;54614;47.576;7.524;2023-04-25T03:18:03;3.60;;;1.45;;
67816;SDS011;54614;47.576;7.524;2023-04-25T03:20:29;2.28;;;1.50;;
67816;SDS011;54614;47.576;7.524;2023-04-25T03:22:55;1.75;;;1.23;;
67816;SDS011;54614;47.576;7.524;2023-04-25T03:25:21;2.08;;;1.38;;
67816;SDS011;54614;47.576;7.524;2023-04-25T03:27:47;1.85;;;1.63;;
67816;SDS011;54614;47.576;7.524;2023-04-25T03:30:12;2.40;;;1.20;;
67816;SDS011;54614;47.576;7.524;2023-04-25T03:32:38;1.92;;;1.30;;
67816;SDS011;54614;47.576;7.524;2023-04-25T03:35:04;4.80;;;1.40;;
67816;SDS011;54614;47.576;7.524;2023-04-25T03:37:30;1.40;;;1.30;;
67816;SDS011;54614;47.576;7.524;2023-04-25T03:39:56;1.52;;;1.40;;
67816;SDS011;54614;47.576;7.524;2023-04-25T03:42:22;2.03;;;1.30;;
67816;SDS011;54614;47.576;7.524;2023-04-25T03:44:48;1.55;;;1.27;;
67816;SDS011;54614;47.576;7.524;2023-04-25T03:47:15;1.90;;;1.40;;
67816;SDS011;54614;47.576;7.524;2023-04-25T03:49:41;1.55;;;1.30;;
67816;SDS011;54614;47.576;7.524;2023-04-25T03:52:07;1.80;;;1.50;;
67816;SDS011;54614;47.576;7.524;2023-04-25T03:54:33;1.73;;;1.45;;
67816;SDS011;54614;47.576;7.524;2023-04-25T03:56:59;1.67;;;1.40;;
67816;SDS011;54614;47.576;7.524;2023-04-25T03:59:25;6.63;;;1.40;;
67816;SDS011;54614;47.576;7.524;2023-04-25T04:01:51;4.82;;;1.33;;
67816;SDS011;54614;47.576;7.524;2023-04-25T04:04:17;2.33;;;1.20;;
67816;SDS011;54614;47.576;7.524;2023-04-25T04:06:43;1.67;;;1.23;;
67816;SDS011;54614;47.576;7.524;2023-04-25T04:09:09;4.20;;;1.15;;
67816;SDS011;54614;47.576;7.524;2023-04-25T04:11:36;1.95;;;1.20;;
67816;SDS011;54614;47.576;7.524;2023-04-25T04:14:04;1.13;;;1.13;;
67816;SDS011;54614;47.576;7.524;2023-04-25T04:16:31;1.63;;;1.30;;
67816;SDS011;54614;47.576;7.524;2023-04-25T04:18:57;1.95;;;1.33;;
67816;SDS011;54614;47.576;7.524;2023-04-25T04:21:23;2.30;;;1.33;;
67816;SDS011;54614;47.576;7.524;2023-04-25T04:23:49;2.10;;;1.40;;
67816;SDS011;54614;47.576;7.524;2023-04-25T04:26:15;1.88;;;1.40;;
67816;SDS011;54614;47.576;7.524;2023-04-25T04:28:41;2.45;;;1.40;;
67816;SDS011;54614;47.576;7.524;2023-04-25T04:31:09;1.50;;;1.30;;
67816;SDS011;54614;47.576;7.524;2023-04-25T04:33:35;1.33;;;1.23;;
67816;SDS011;54614;47.576;7.524;2023-04-25T04:36:02;2.45;;;1.30;;
67816;SDS011;54614;47.576;7.524;2023-04-25T04:38:29;1.30;;;1.20;;
67816;SDS011;54614;47.576;7.524;2023-04-25T04:40:55;3.08;;;1.25;;
67816;SDS011;54614;47.576;7.524;2023-04-25T04:43:22;1.90;;;1.27;;
67816;SDS011;54614;47.576;7.524;2023-04-25T04:45:48;2.28;;;1.27;;
67816;SDS011;54614;47.576;7.524;2023-04-25T04:48:15;2.63;;;1.30;;
67816;SDS011;54614;47.576;7.524;2023-04-25T04:50:44;1.98;;;1.20;;
67816;SDS011;54614;47.576;7.524;2023-04-25T04:53:10;1.75;;;1.20;;
67816;SDS011;54614;47.576;7.524;2023-04-25T04:55:37;1.33;;;1.20;;
67816;SDS011;54614;47.576;7.524;2023-04-25T04:58:02;2.60;;;1.10;;
67816;SDS011;54614;47.576;7.524;2023-04-25T05:00:28;1.30;;;1.20;;
67816;SDS011;54614;47.576;7.524;2023-04-25T05:02:55;1.00;;;1.00;;
67816;SDS011;54614;47.576;7.524;2023-04-25T05:05:21;1.83;;;1.10;;
67816;SDS011;54614;47.576;7.524;2023-04-25T05:07:47;3.58;;;1.10;;
67816;SDS011;54614;47.576;7.524;2023-04-25T05:10:13;1.30;;;1.15;;
67816;SDS011;54614;47.576;7.524;2023-04-25T05:12:39;1.52;;;1.35;;
67816;SDS011;54614;47.576;7.524;2023-04-25T05:15:05;1.40;;;1.17;;
67816;SDS011;54614;47.576;7.524;2023-04-25T05:17:31;3.20;;;1.25;;
67816;SDS011;54614;47.576;7.524;2023-04-25T05:19:57;2.20;;;1.05;;
67816;SDS011;54614;47.576;7.524;2023-04-25T05:22:23;3.38;;;1.25;;
67816;SDS011;54614;47.576;7.524;2023-04-25T05:24:50;1.17;;;1.17;;
67816;SDS011;54614;47.576;7.524;2023-04-25T05:27:19;4.28;;;1.20;;
67816;SDS011;54614;47.576;7.524;2023-04-25T05:29:45;1.77;;;1.10;;
67816;SDS011;54614;47.576;7.524;2023-04-25T05:32:11;1.45;;;1.20;;
67816;SDS011;54614;47.576;7.524;2023-04-25T05:34:37;1.20;;;1.20;;
67816;SDS011;54614;47.576;7.524;2023-04-25T05:37:03;4.30;;;1.30;;
67816;SDS011;54614;47.576;7.524;2023-04-25T05:39:29;2.35;;;1.23;;
67816;SDS011;54614;47.576;7.524;2023-04-25T05:41:54;1.35;;;1.30;;
67816;SDS011;54614;47.576;7.524;2023-04-25T05:44:20;2.22;;;1.30;;
67816;SDS011;54614;47.576;7.524;2023-04-25T05:46:46;1.40;;;1.30;;
67816;SDS011;54614;47.576;7.524;2023-04-25T05:49:12;1.38;;;1.27;;
67816;SDS011;54614;47.576;7.524;2023-04-25T05:51:38;1.95;;;1.20;;
67816;SDS011;54614;47.576;7.524;2023-04-25T05:54:04;3.30;;;1.20;;
67816;SDS011;54614;47.576;7.524;2023-04-25T05:56:30;2.10;;;1.25;;
67816;SDS011;54614;47.576;7.524;2023-04-25T05:58:55;4.50;;;1.20;;
67816;SDS011;54614;47.576;7.524;2023-04-25T06:01:22;1.35;;;1.20;;
67816;SDS011;54614;47.576;7.524;2023-04-25T06:03:48;1.45;;;1.30;;
67816;SDS011;54614;47.576;7.524;2023-04-25T06:06:16;3.80;;;1.30;;
67816;SDS011;54614;47.576;7.524;2023-04-25T06:08:42;1.35;;;1.30;;
67816;SDS011;54614;47.576;7.524;2023-04-25T06:11:08;1.67;;;1.30;;
67816;SDS011;54614;47.576;7.524;2023-04-25T06:13:34;1.20;;;1.10;;
67816;SDS011;54614;47.576;7.524;2023-04-25T06:15:59;1.35;;;1.20;;
67816;SDS011;54614;47.576;7.524;2023-04-25T06:18:25;2.55;;;1.20;;
67816;SDS011;54614;47.576;7.524;2023-04-25T06:20:51;2.03;;;1.33;;
67816;SDS011;54614;47.576;7.524;2023-04-25T06:23:17;1.38;;;1.27;;
67816;SDS011;54614;47.576;7.524;2023-04-25T06:25:43;1.30;;;1.20;;
67816;SDS011;54614;47.576;7.524;2023-04-25T06:28:09;4.60;;;1.25;;
67816;SDS011;54614;47.576;7.524;2023-04-25T06:30:35;2.55;;;1.30;;
67816;SDS011;54614;47.576;7.524;2023-04-25T06:33:00;3.13;;;1.30;;
67816;SDS011;54614;47.576;7.524;2023-04-25T06:35:26;5.18;;;1.42;;
67816;SDS011;54614;47.576;7.524;2023-04-25T06:37:52;8.23;;;1.55;;
67816;SDS011;54614;47.576;7.524;2023-04-25T06:40:18;1.27;;;1.15;;
67816;SDS011;54614;47.576;7.524;2023-04-25T06:42:44;2.03;;;1.20;;
67816;SDS011;54614;47.576;7.524;2023-04-25T06:45:09;3.58;;;1.30;;
67816;SDS011;54614;47.576;7.524;2023-04-25T06:47:35;4.45;;;1.10;;
67816;SDS011;54614;47.576;7.524;2023-04-25T06:50:01;6.72;;;1.30;;
67816;SDS011;54614;47.576;7.524;2023-04-25T06:52:27;1.65;;;1.20;;
67816;SDS011;54614;47.576;7.524;2023-04-25T06:54:53;3.72;;;1.20;;
67816;SDS011;54614;47.576;7.524;2023-04-25T06:57:19;1.67;;;1.13;;
67816;SDS011;54614;47.576;7.524;2023-04-25T06:59:45;2.50;;;1.17;;
67816;SDS011;54614;47.576;7.524;2023-04-25T07:02:11;2.03;;;1.45;;
67816;SDS011;54614;47.576;7.524;2023-04-25T07:04:36;2.58;;;1.27;;
67816;SDS011;54614;47.576;7.524;2023-04-25T07:07:02;2.75;;;1.20;;
67816;SDS011;54614;47.576;7.524;2023-04-25T07:09:28;3.17;;;1.10;;
67816;SDS011;54614;47.576;7.524;2023-04-25T07:11:55;3.45;;;1.17;;
67816;SDS011;54614;47.576;7.524;2023-04-25T07:14:21;5.15;;;1.20;;
67816;SDS011;54614;47.576;7.524;2023-04-25T07:16:47;6.15;;;1.15;;
67816;SDS011;54614;47.576;7.524;2023-04-25T07:19:14;5.47;;;1.30;;
67816;SDS011;54614;47.576;7.524;2023-04-25T07:21:40;3.33;;;1.23;;
67816;SDS011;54614;47.576;7.524;2023-04-25T07:24:06;12.82;;;1.45;;
67816;SDS011;54614;47.576;7.524;2023-04-25T07:26:32;2.92;;;1.10;;
67816;SDS011;54614;47.576;7.524;2023-04-25T07:28:58;2.53;;;1.08;;
67816;SDS011;54614;47.576;7.524;2023-04-25T07:31:24;8.30;;;1.25;;
67816;SDS011;54614;47.576;7.524;2023-04-25T07:33:50;11.13;;;1.40;;
67816;SDS011;54614;47.576;7.524;2023-04-25T07:36:16;4.32;;;1.10;;
67816;SDS011;54614;47.576;7.524;2023-04-25T07:38:41;7.40;;;1.50;;
67816;SDS011;54614;47.576;7.524;2023-04-25T07:41:07;8.15;;;1.40;;
67816;SDS011;54614;47.576;7.524;2023-04-25T07:43:33;10.30;;;1.42;;
67816;SDS011;54614;47.576;7.524;2023-04-25T07:45:59;4.55;;;1.20;;
67816;SDS011;54614;47.576;7.524;2023-04-25T07:48:25;5.22;;;1.20;;
67816;SDS011;54614;47.576;7.524;2023-04-25T07:50:51;7.10;;;1.27;;
67816;SDS011;54614;47.576;7.524;2023-04-25T07:53:17;14.45;;;1.55;;
67816;SDS011;54614;47.576;7.524;2023-04-25T07:55:43;5.05;;;1.10;;
67816;SDS011;54614;47.576;7.524;2023-04-25T07:58:09;9.57;;;1.30;;
67816;SDS011;54614;47.576;7.524;2023-04-25T08:00:36;7.22;;;1.38;;
67816;SDS011;54614;47.576;7.524;2023-04-25T08:03:02;4.30;;;1.30;;
67816;SDS011;54614;47.576;7.524;2023-04-25T08:05:28;13.35;;;1.80;;
67816;SDS011;54614;47.576;7.524;2023-04-25T08:07:54;11.70;;;1.85;;
67816;SDS011;54614;47.576;7.524;2023-04-25T08:10:21;9.68;;;1.50;;
67816;SDS011;54614;47.576;7.524;2023-04-25T08:12:48;10.50;;;1.60;;
67816;SDS011;54614;47.576;7.524;2023-04-25T08:15:14;13.77;;;1.67;;
67816;SDS011;54614;47.576;7.524;2023-04-25T08:17:40;19.77;;;2.25;;
67816;SDS011;54614;47.576;7.524;2023-04-25T08:20:06;11.82;;;2.05;;
67816;SDS011;54614;47.576;7.524;2023-04-25T08:22:33;15.75;;;1.73;;
67816;SDS011;54614;47.576;7.524;2023-04-25T08:24:59;12.30;;;1.85;;
67816;SDS011;54614;47.576;7.524;2023-04-25T08:27:25;11.15;;;1.55;;
67816;SDS011;54614;47.576;7.524;2023-04-25T08:29:51;8.70;;;1.60;;
67816;SDS011;54614;47.576;7.524;2023-04-25T08:32:18;12.15;;;1.90;;
67816;SDS011;54614;47.576;7.524;2023-04-25T08:34:44;7.57;;;1.67;;
67816;SDS011;54614;47.576;7.524;2023-04-25T08:37:10;15.48;;;1.80;;
67816;SDS011;54614;47.576;7.524;2023-04-25T08:39:36;13.23;;;1.70;;
67816;SDS011;54614;47.576;7.524;2023-04-25T08:42:03;25.35;;;2.08;;
67816;SDS011;54614;47.576;7.524;2023-04-25T08:44:35;12.05;;;1.70;;
67816;SDS011;54614;47.576;7.524;2023-04-25T08:47:05;9.75;;;1.50;;
67816;SDS011;54614;47.576;7.524;2023-04-25T08:49:32;12.30;;;1.67;;
67816;SDS011;54614;47.576;7.524;2023-04-25T08:51:59;9.63;;;1.30;;
67816;SDS011;54614;47.576;7.524;2023-04-25T08:54:27;13.25;;;1.50;;
67816;SDS011;54614;47.576;7.524;2023-04-25T08:56:56;10.18;;;1.55;;
67816;SDS011;54614;47.576;7.524;2023-04-25T08:59:32;12.65;;;1.60;;
67816;SDS011;54614;47.576;7.524;2023-04-25T09:01:58;15.43;;;2.10;;
67816;SDS011;54614;47.576;7.524;2023-04-25T09:04:23;15.20;;;2.05;;
67816;SDS011;54614;47.576;7.524;2023-04-25T09:06:50;9.98;;;1.70;;
67816;SDS011;54614;47.576;7.524;2023-04-25T09:09:15;17.65;;;1.85;;
67816;SDS011;54614;47.576;7.524;2023-04-25T09:11:41;13.95;;;1.98;;
67816;SDS011;54614;47.576;7.524;2023-04-25T09:19:22;13.10;;;1.75;;
67816;SDS011;54614;47.576;7.524;2023-04-25T09:21:50;11.88;;;1.48;;
67816;SDS011;54614;47.576;7.524;2023-04-25T09:27:09;11.00;;;1.63;;
67816;SDS011;54614;47.576;7.524;2023-04-25T09:29:38;10.77;;;1.67;;
67816;SDS011;54614;47.576;7.524;2023-04-25T09:32:13;11.18;;;1.67;;
67816;SDS011;54614;47.576;7.524;2023-04-25T09:34:48;10.25;;;1.40;;
67816;SDS011;54614;47.576;7.524;2023-04-25T09:37:19;8.63;;;1.27;;
67816;SDS011;54614;47.576;7.524;2023-04-25T09:39:54;7.18;;;1.60;;
67816;SDS011;54614;47.576;7.524;2023-04-25T09:42:30;9.32;;;1.60;;
67816;SDS011;54614;47.576;7.524;2023-04-25T09:44:57;6.43;;;1.40;;
67816;SDS011;54614;47.576;7.524;2023-04-25T09:47:24;6.60;;;1.55;;
67816;SDS011;54614;47.576;7.524;2023-04-25T09:49:52;8.13;;;1.70;;
67816;SDS011;54614;47.576;7.524;2023-04-25T09:52:24;8.27;;;1.50;;
67816;SDS011;54614;47.576;7.524;2023-04-25T09:54:51;7.70;;;1.50;;
67816;SDS011;54614;47.576;7.524;2023-04-25T09:57:19;7.05;;;1.52;;
67816;SDS011;54614;47.576;7.524;2023-04-25T09:59:51;7.50;;;1.48;;
67816;SDS011;54614;47.576;7.524;2023-04-25T10:02:24;5.07;;;1.50;;
67816;SDS011;54614;47.576;7.524;2023-04-25T10:04:52;11.27;;;1.50;;
67816;SDS011;54614;47.576;7.524;2023-04-25T10:07:21;5.38;;;1.33;;
67816;SDS011;54614;47.576;7.524;2023-04-25T10:09:55;7.45;;;1.50;;
67816;SDS011;54614;47.576;7.524;2023-04-25T10:12:27;5.18;;;1.50;;
67816;SDS011;54614;47.576;7.524;2023-04-25T10:14:54;6.57;;;1.40;;
67816;SDS011;54614;47.576;7.524;2023-04-25T10:17:21;3.17;;;1.30;;
67816;SDS011;54614;47.576;7.524;2023-04-25T10:19:47;5.93;;;1.40;;
67816;SDS011;54614;47.576;7.524;2023-04-25T10:22:17;9.98;;;1.63;;
67816;SDS011;54614;47.576;7.524;2023-04-25T10:25:01;7.00;;;1.35;;
67816;SDS011;54614;47.576;7.524;2023-04-25T10:27:30;2.10;;;1.27;;
67816;SDS011;54614;47.576;7.524;2023-04-25T10:30:00;4.97;;;1.40;;
67816;SDS011;54614;47.576;7.524;2023-04-25T10:32:36;6.63;;;1.20;;
67816;SDS011;54614;47.576;7.524;2023-04-25T10:38:00;6.65;;;1.33;;
67816;SDS011;54614;47.576;7.524;2023-04-25T10:40:35;4.18;;;1.45;;
67816;SDS011;54614;47.576;7.524;2023-04-25T10:46:01;4.20;;;1.20;;
67816;SDS011;54614;47.576;7.524;2023-04-25T10:48:29;3.88;;;1.10;;
67816;SDS011;54614;47.576;7.524;2023-04-25T10:51:08;2.33;;;1.27;;
67816;SDS011;54614;47.576;7.524;2023-04-25T10:53:36;4.75;;;1.10;;
67816;SDS011;54614;47.576;7.524;2023-04-25T10:58:48;5.88;;;1.17;;
67816;SDS011;54614;47.576;7.524;2023-04-25T11:01:15;4.03;;;1.10;;
67816;SDS011;54614;47.576;7.524;2023-04-25T11:03:56;2.97;;;1.00;;
67816;SDS011;54614;47.576;7.524;2023-04-25T11:06:27;4.07;;;1.25;;
67816;SDS011;54614;47.576;7.524;2023-04-25T11:09:18;2.15;;;1.00;;
67816;SDS011;54614;47.576;7.524;2023-04-25T11:11:47;1.70;;;1.02;;
67816;SDS011;54614;47.576;7.524;2023-04-25T11:14:23;2.70;;;1.10;;
67816;SDS011;54614;47.576;7.524;2023-04-25T11:16:56;4.30;;;1.10;;
67816;SDS011;54614;47.576;7.524;2023-04-25T11:19:26;1.33;;;1.00;;
67816;SDS011;54614;47.576;7.524;2023-04-25T11:21:55;3.38;;;1.10;;
67816;SDS011;54614;47.576;7.524;2023-04-25T11:24:29;3.05;;;1.08;;
67816;SDS011;54614;47.576;7.524;2023-04-25T11:26:58;2.13;;;1.00;;
67816;SDS011;54614;47.576;7.524;2023-04-25T11:29:27;4.15;;;1.20;;
67816;SDS011;54614;47.576;7.524;2023-04-25T11:31:55;1.63;;;1.10;;
67816;SDS011;54614;47.576;7.524;2023-04-25T11:34:23;4.10;;;1.10;;
67816;SDS011;54614;47.576;7.524;2023-04-25T11:36:52;2.15;;;1.05;;
67816;SDS011;54614;47.576;7.524;2023-04-25T11:39:19;3.20;;;1.20;;
67816;SDS011;54614;47.576;7.524;2023-04-25T11:41:46;3.40;;;1.00;;
67816;SDS011;54614;47.576;7.524;2023-04-25T11:44:12;4.20;;;1.23;;
67816;SDS011;54614;47.576;7.524;2023-04-25T11:46:45;2.33;;;1.05;;
67816;SDS011;54614;47.576;7.524;2023-04-25T11:49:11;2.17;;;1.13;;
67816;SDS011;54614;47.576;7.524;2023-04-25T11:51:39;1.50;;;0.80;;
67816;SDS011;54614;47.576;7.524;2023-04-25T11:54:12;2.05;;;0.98;;
67816;SDS011;54614;47.576;7.524;2023-04-25T11:56:43;2.15;;;0.90;;
67816;SDS011;54614;47.576;7.524;2023-04-25T11:59:10;1.40;;;0.90;;
67816;SDS011;54614;47.576;7.524;2023-04-25T12:01:40;1.75;;;1.10;;
67816;SDS011;54614;47.576;7.524;2023-04-25T12:06:45;1.08;;;0.95;;
67816;SDS011;54614;47.576;7.524;2023-04-25T12:09:14;1.05;;;0.90;;
67816;SDS011;54614;47.576;7.524;2023-04-25T12:11:53;6.97;;;1.10;;
67816;SDS011;54614;47.576;7.524;2023-04-25T12:14:22;1.00;;;0.90;;
67816;SDS011;54614;47.576;7.524;2023-04-25T12:16:52;1.70;;;0.90;;
67816;SDS011;54614;47.576;7.524;2023-04-25T12:19:21;1.25;;;1.00;;
67816;SDS011;54614;47.576;7.524;2023-04-25T12:21:47;2.70;;;1.05;;
67816;SDS011;54614;47.576;7.524;2023-04-25T12:24:15;1.20;;;0.80;;
67816;SDS011;54614;47.576;7.524;2023-04-25T12:26:51;1.45;;;0.95;;
67816;SDS011;54614;47.576;7.524;2023-04-25T12:29:27;1.15;;;0.98;;
67816;SDS011;54614;47.576;7.524;2023-04-25T12:31:55;1.17;;;1.10;;
67816;SDS011;54614;47.576;7.524;2023-04-25T12:34:21;0.90;;;0.90;;
67816;SDS011;54614;47.576;7.524;2023-04-25T12:36:49;2.88;;;0.90;;
67816;SDS011;54614;47.576;7.524;2023-04-25T12:39:21;1.70;;;0.80;;
67816;SDS011;54614;47.576;7.524;2023-04-25T12:41:50;1.55;;;0.90;;
67816;SDS011;54614;47.576;7.524;2023-04-25T12:44:19;1.35;;;0.73;;
67816;SDS011;54614;47.576;7.524;2023-04-25T12:46:46;2.53;;;0.90;;
67816;SDS011;54614;47.576;7.524;2023-04-25T12:49:13;1.35;;;0.80;;
67816;SDS011;54614;47.576;7.524;2023-04-25T12:51:39;1.52;;;1.00;;
67816;SDS011;54614;47.576;7.524;2023-04-25T12:54:06;1.10;;;0.90;;
67816;SDS011;54614;47.576;7.524;2023-04-25T12:56:33;1.50;;;0.98;;
67816;SDS011;54614;47.576;7.524;2023-04-25T12:59:00;1.38;;;0.90;;
67816;SDS011;54614;47.576;7.524;2023-04-25T13:01:27;2.28;;;0.85;;
67816;SDS011;54614;47.576;7.524;2023-04-25T13:03:54;1.05;;;0.85;;
67816;SDS011;54614;47.576;7.524;2023-04-25T13:06:21;2.63;;;0.90;;
67816;SDS011;54614;47.576;7.524;2023-04-25T13:08:47;1.08;;;0.90;;
67816;SDS011;54614;47.576;7.524;2023-04-25T13:11:13;0.75;;;0.75;;
67816;SDS011;54614;47.576;7.524;2023-04-25T13:13:40;1.33;;;1.00;;
67816;SDS011;54614;47.576;7.524;2023-04-25T13:16:06;0.80;;;0.80;;
67816;SDS011;54614;47.576;7.524;2023-04-25T13:18:32;0.80;;;0.80;;
67816;SDS011;54614;47.576;7.524;2023-04-25T13:20:59;0.95;;;0.70;;
67816;SDS011;54614;47.576;7.524;2023-04-25T13:23:25;0.82;;;0.80;;
67816;SDS011;54614;47.576;7.524;2023-04-25T13:25:53;1.35;;;0.77;;
67816;SDS011;54614;47.576;7.524;2023-04-25T13:28:26;0.65;;;0.65;;
67816;SDS011;54614;47.576;7.524;2023-04-25T13:30:52;0.73;;;0.73;;
67816;SDS011;54614;47.576;7.524;2023-04-25T13:33:19;0.80;;;0.80;;
67816;SDS011;54614;47.576;7.524;2023-04-25T13:35:46;0.70;;;0.70;;
67816;SDS011;54614;47.576;7.524;2023-04-25T13:38:22;0.98;;;0.85;;
67816;SDS011;54614;47.576;7.524;2023-04-25T13:40:50;1.10;;;0.82;;
67816;SDS011;54614;47.576;7.524;2023-04-25T13:43:18;1.05;;;0.85;;
67816;SDS011;54614;47.576;7.524;2023-04-25T13:45:48;2.25;;;0.88;;
67816;SDS011;54614;47.576;7.524;2023-04-25T13:48:14;0.80;;;0.80;;
67816;SDS011;54614;47.576;7.524;2023-04-25T13:50:41;0.88;;;0.88;;
67816;SDS011;54614;47.576;7.524;2023-04-25T13:53:07;1.17;;;0.90;;
67816;SDS011;54614;47.576;7.524;2023-04-25T13:55:33;0.75;;;0.70;;
67816;SDS011;54614;47.576;7.524;2023-04-25T13:58:01;0.80;;;0.70;;
67816;SDS011;54614;47.576;7.524;2023-04-25T14:00:32;0.90;;;0.90;;
67816;SDS011;54614;47.576;7.524;2023-04-25T14:03:02;0.85;;;0.85;;
67816;SDS011;54614;47.576;7.524;2023-04-25T14:05:29;0.75;;;0.75;;
67816;SDS011;54614;47.576;7.524;2023-04-25T14:07:56;0.75;;;0.75;;
67816;SDS011;54614;47.576;7.524;2023-04-25T14:10:21;0.82;;;0.70;;
67816;SDS011;54614;47.576;7.524;2023-04-25T14:12:47;1.17;;;0.70;;
67816;SDS011;54614;47.576;7.524;2023-04-25T14:15:13;1.27;;;0.70;;
67816;SDS011;54614;47.576;7.524;2023-04-25T14:17:39;0.80;;;0.80;;
67816;SDS011;54614;47.576;7.524;2023-04-25T14:20:05;0.80;;;0.80;;
67816;SDS011;54614;47.576;7.524;2023-04-25T14:22:34;0.90;;;0.90;;
67816;SDS011;54614;47.576;7.524;2023-04-25T14:24:59;0.80;;;0.80;;
67816;SDS011;54614;47.576;7.524;2023-04-25T14:27:25;0.77;;;0.77;;
67816;SDS011;54614;47.576;7.524;2023-04-25T14:29:52;0.77;;;0.77;;
67816;SDS011;54614;47.576;7.524;2023-04-25T14:32:18;1.58;;;0.70;;
67816;SDS011;54614;47.576;7.524;2023-04-25T14:34:45;0.80;;;0.80;;
67816;SDS011;54614;47.576;7.524;2023-04-25T14:37:10;0.90;;;0.90;;
67816;SDS011;54614;47.576;7.524;2023-04-25T14:39:36;0.75;;;0.75;;
67816;SDS011;54614;47.576;7.524;2023-04-25T14:42:02;1.05;;;0.60;;
67816;SDS011;54614;47.576;7.524;2023-04-25T14:44:28;0.70;;;0.70;;
67816;SDS011;54614;47.576;7.524;2023-04-25T14:46:54;0.93;;;0.70;;
67816;SDS011;54614;47.576;7.524;2023-04-25T14:49:20;0.77;;;0.75;;
67816;SDS011;54614;47.576;7.524;2023-04-25T14:51:46;0.77;;;0.77;;
67816;SDS011;54614;47.576;7.524;2023-04-25T14:54:12;1.33;;;0.80;;
67816;SDS011;54614;47.576;7.524;2023-04-25T14:56:38;1.40;;;0.80;;
67816;SDS011;54614;47.576;7.524;2023-04-25T14:59:04;0.82;;;0.80;;
67816;SDS011;54614;47.576;7.524;2023-04-25T15:01:29;0.52;;;0.52;;
67816;SDS011;54614;47.576;7.524;2023-04-25T15:03:55;0.70;;;0.70;;
67816;SDS011;54614;47.576;7.524;2023-04-25T15:06:22;0.80;;;0.80;;